Weather at İskenderun Airport [CLOSED]

Public forecast

Using degrees Celsius for public forecast. Weather courtesy of forecast.io.

Closest aviation weather report (METAR) to İskenderun Airport

Closest report is Hatay Airport, 14.1 nm (26.2 km) SSE. Retrieved 2022/01/27 08:50 UTC (13 minutes ago):

LTDA 270850Z 30014KT 9999 SCT030 09/00 Q1014 NOSIG

Closest aviation forecast (TAF) to İskenderun Airport

Closest forecast is İncirlik Air Base, 43.4 nm (80.4 km) NW. Retrieved 2022/01/27 06:03 UTC (3 hours ago):

TAF LTAG 270440Z 2706/2806 34012KT 9999 SCT035